Aviation Digital Data Service (ADDS)

Output produced by METARs form (1557 UTC 28 April 2015)
found at http://aviationweather.gov/adds/metars/
 
KINT 281411Z 2814/2912 03010KT P6SM SKC 
     FM282200 08005KT P6SM FEW050 BKN200 
     FM290800 09004KT P6SM BKN120